Time;durP1;ratioP1;P1;durP2;ratioP2;P2;SDS_P1;SDS_P2;PMS_P1;PMS_P2;Temp;Humidity;BMP_temperature;BMP_pressure;BME280_temperature;BME280_humidity;BME280_pressure;Samples;Min_cycle;Max_cycle;Signal;HPM_P1;HPM_P2
2022/08/26 00:00:44;;;;;;;4.50;2.80;;;24.40;99.90;;;;;;7394392;19;20134;-77
2022/08/26 00:03:11;;;;;;;5.93;2.60;;;24.10;99.90;;;;;;7396937;19;20159;-77
2022/08/26 00:05:38;;;;;;;3.78;2.88;;;23.90;99.90;;;;;;7392346;19;20142;-75
2022/08/26 00:08:04;;;;;;;2.88;2.67;;;23.70;99.90;;;;;;7392097;19;20274;-77
2022/08/26 00:10:30;;;;;;;3.53;2.67;;;23.70;99.90;;;;;;7395279;19;20589;-77
2022/08/26 00:12:56;;;;;;;3.00;2.63;;;23.80;99.90;;;;;;7393561;19;20135;-77
2022/08/26 00:15:23;;;;;;;3.80;2.83;;;23.90;99.90;;;;;;7392816;19;20158;-75
2022/08/26 00:17:50;;;;;;;2.88;2.47;;;24.00;99.90;;;;;;7396555;19;20652;-77
2022/08/26 00:20:22;;;;;;;3.28;2.55;;;24.00;99.90;;;;;;7394200;19;20138;-78
2022/08/26 00:22:48;;;;;;;4.13;3.00;;;24.00;99.90;;;;;;7393491;19;20146;-76
2022/08/26 00:25:14;;;;;;;4.28;2.78;;;24.00;99.90;;;;;;7391516;19;20134;-77
2022/08/26 00:27:42;;;;;;;2.80;2.22;;;24.20;99.90;;;;;;7394710;19;20159;-76
2022/08/26 00:30:13;;;;;;;2.88;2.58;;;24.20;99.90;;;;;;7396943;19;20202;-76
2022/08/26 00:32:39;;;;;;;3.83;2.92;;;24.10;99.90;;;;;;7393768;19;20147;-77
2022/08/26 00:35:06;;;;;;;6.22;2.50;;;24.10;99.90;;;;;;7390899;19;20150;-77
2022/08/26 00:37:32;;;;;;;6.00;2.95;;;24.20;99.90;;;;;;7392600;19;20134;-77
2022/08/26 00:39:58;;;;;;;4.20;2.80;;;24.30;99.90;;;;;;7394519;19;20163;-76
2022/08/26 00:42:23;;;;;;;2.80;2.40;;;24.30;99.90;;;;;;7390006;19;20479;-75
2022/08/26 00:44:49;;;;;;;3.67;2.63;;;24.20;99.90;;;;;;7396320;19;20156;-76
2022/08/26 00:47:27;;;;;;;2.50;2.22;;;24.20;99.90;;;;;;7394522;19;20471;-76
2022/08/26 00:49:53;;;;;;;2.70;2.50;;;24.10;99.90;;;;;;7397169;19;20479;-76
2022/08/26 00:52:21;;;;;;;3.50;3.20;;;24.20;99.90;;;;;;7393357;19;20127;-76
2022/08/26 00:55:00;;;;;;;3.30;3.00;;;24.10;99.90;;;;;;7397431;19;20134;-75
2022/08/26 00:57:26;;;;;;;3.33;2.95;;;24.20;99.90;;;;;;7398348;19;20138;-75
2022/08/26 00:59:56;;;;;;;4.97;3.10;;;24.10;99.90;;;;;;7401921;19;20131;-76
2022/08/26 01:02:22;;;;;;;3.92;3.03;;;24.10;99.90;;;;;;7402477;19;20142;-78
2022/08/26 01:04:52;;;;;;;3.22;2.92;;;24.00;99.90;;;;;;7399550;19;20581;-78
2022/08/26 01:07:18;;;;;;;4.50;3.33;;;23.60;99.90;;;;;;7399322;19;20146;-79
2022/08/26 01:09:45;;;;;;;3.97;3.05;;;23.30;99.90;;;;;;7398421;19;20612;-79
2022/08/26 01:12:11;;;;;;;4.97;3.13;;;23.20;99.90;;;;;;7392885;19;20155;-77
2022/08/26 01:14:39;;;;;;;3.30;2.75;;;23.10;99.90;;;;;;7390313;19;20572;-79
2022/08/26 01:17:06;;;;;;;5.18;3.22;;;23.20;99.90;;;;;;7387862;19;20187;-79
2022/08/26 01:19:49;;;;;;;3.08;2.78;;;23.30;99.90;;;;;;7396721;19;20142;-79
2022/08/26 01:22:21;;;;;;;3.17;2.88;;;23.30;99.90;;;;;;7394471;19;20139;-79
2022/08/26 01:24:48;;;;;;;4.15;3.35;;;23.20;99.90;;;;;;7394226;19;20137;-79
2022/08/26 01:27:17;;;;;;;5.93;3.47;;;23.30;99.90;;;;;;7392769;19;20171;-78
2022/08/26 01:29:45;;;;;;;3.20;2.80;;;23.30;99.90;;;;;;7392761;19;20175;-79
2022/08/26 01:32:15;;;;;;;4.25;3.22;;;23.30;99.90;;;;;;7391788;19;20135;-79
2022/08/26 01:34:41;;;;;;;4.30;3.15;;;23.40;99.90;;;;;;7389203;19;20154;-79
2022/08/26 01:37:23;;;;;;;5.22;3.25;;;23.40;99.90;;;;;;7388577;19;20198;-79
2022/08/26 01:39:53;;;;;;;5.38;3.83;;;23.70;99.90;;;;;;7393031;19;20135;-83
2022/08/26 01:42:22;;;;;;;9.00;3.80;;;23.80;99.90;;;;;;7387379;19;20182;-80
2022/08/26 01:44:56;;;;;;;6.15;3.35;;;23.90;99.90;;;;;;7391072;19;20138;-79
2022/08/26 01:47:24;;;;;;;4.07;3.17;;;23.80;99.90;;;;;;7394164;19;20149;-78
2022/08/26 01:49:54;;;;;;;4.95;3.80;;;23.70;99.90;;;;;;7389301;19;20146;-79
2022/08/26 01:52:25;;;;;;;5.80;3.38;;;23.80;99.90;;;;;;7393623;19;20234;-78
2022/08/26 01:54:53;;;;;;;3.83;3.25;;;23.70;99.90;;;;;;7388291;19;20249;-79
2022/08/26 01:57:19;;;;;;;4.22;3.00;;;23.30;99.90;;;;;;7390228;19;20142;-79
2022/08/26 01:59:48;;;;;;;4.65;2.85;;;23.20;99.90;;;;;;7388963;19;20171;-77
2022/08/26 02:02:14;;;;;;;5.15;3.15;;;23.20;99.90;;;;;;7390311;19;20160;-79
2022/08/26 02:04:50;;;;;;;3.05;2.42;;;23.20;99.90;;;;;;7391869;19;20163;-79
2022/08/26 02:07:19;;;;;;;5.85;3.00;;;23.20;99.90;;;;;;7389985;19;20165;-79
2022/08/26 02:09:45;;;;;;;5.03;3.38;;;23.30;99.90;;;;;;7388243;19;20645;-79
2022/08/26 02:12:15;;;;;;;4.45;3.40;;;23.40;99.90;;;;;;7389130;19;20151;-79
2022/08/26 02:14:48;;;;;;;5.40;3.60;;;23.50;99.90;;;;;;7390618;19;20142;-78
2022/08/26 02:17:16;;;;;;;9.10;3.80;;;23.40;99.90;;;;;;7388771;19;20221;-79
2022/08/26 02:19:46;;;;;;;4.32;3.28;;;23.50;99.90;;;;;;7390122;19;20213;-79
2022/08/26 02:22:16;;;;;;;4.80;3.28;;;23.50;99.90;;;;;;7389560;19;20143;-78
2022/08/26 02:24:53;;;;;;;5.68;2.95;;;23.30;99.90;;;;;;7388729;19;20135;-76
2022/08/26 02:27:26;;;;;;;3.90;2.97;;;23.20;99.90;;;;;;7392109;19;20145;-77
2022/08/26 02:30:16;;;;;;;3.55;3.25;;;23.20;99.90;;;;;;7389888;19;20163;-77
2022/08/26 02:32:42;;;;;;;4.80;3.30;;;23.40;99.90;;;;;;7388698;19;20139;-77
2022/08/26 02:35:12;;;;;;;5.30;3.22;;;23.30;99.90;;;;;;7386475;19;20585;-77
2022/08/26 02:37:38;;;;;;;6.75;4.03;;;23.30;99.90;;;;;;7390219;19;20142;-76
2022/08/26 02:40:06;;;;;;;5.07;3.67;;;23.30;99.90;;;;;;7387178;19;20139;-77
2022/08/26 02:42:32;;;;;;;5.50;3.33;;;23.10;99.90;;;;;;7386356;19;20185;-77
2022/08/26 02:44:58;;;;;;;4.13;3.20;;;23.20;99.90;;;;;;7388200;19;20139;-79
2022/08/26 02:47:24;;;;;;;6.35;3.17;;;23.20;99.90;;;;;;7387227;19;20147;-79
2022/08/26 02:49:51;;;;;;;8.48;4.00;;;23.10;99.90;;;;;;7385257;19;20506;-78
2022/08/26 02:52:17;;;;;;;8.32;3.85;;;23.10;99.90;;;;;;7388147;19;20142;-78
2022/08/26 02:54:43;;;;;;;15.68;5.20;;;22.90;99.90;;;;;;7392104;19;20147;-79
2022/08/26 02:57:09;;;;;;;10.50;4.15;;;22.90;99.90;;;;;;7391232;19;20147;-77
2022/08/26 02:59:38;;;;;;;7.30;3.90;;;23.00;99.90;;;;;;7390384;19;20143;-78
2022/08/26 03:02:04;;;;;;;5.35;3.50;;;23.10;99.90;;;;;;7390940;19;20142;-78
2022/08/26 03:04:30;;;;;;;4.47;3.35;;;23.20;99.90;;;;;;7395409;19;20131;-78
2022/08/26 03:06:57;;;;;;;4.60;3.00;;;23.20;99.90;;;;;;7388743;19;20150;-79
2022/08/26 03:09:23;;;;;;;4.72;3.17;;;23.20;99.90;;;;;;7386542;19;20163;-79
2022/08/26 03:11:50;;;;;;;3.05;2.72;;;22.90;99.90;;;;;;7387869;19;20135;-79
2022/08/26 03:14:15;;;;;;;4.20;3.00;;;22.80;99.90;;;;;;7388207;19;20139;-79
2022/08/26 03:16:41;;;;;;;4.78;3.35;;;22.80;99.90;;;;;;7387402;19;20150;-79
2022/08/26 03:19:10;;;;;;;4.22;3.13;;;22.80;99.90;;;;;;7387502;19;20135;-79
2022/08/26 03:21:37;;;;;;;6.00;3.40;;;22.60;99.90;;;;;;7386281;19;20151;-78
2022/08/26 03:24:03;;;;;;;4.05;3.13;;;22.50;99.90;;;;;;7390275;19;20150;-79
2022/08/26 03:26:29;;;;;;;7.53;3.72;;;22.50;99.90;;;;;;7390651;19;20823;-77
2022/08/26 03:31:40;;;;;;;5.65;4.25;;;22.50;99.90;;;;;;7388816;19;20134;-78
2022/08/26 03:34:06;;;;;;;5.75;3.53;;;22.40;99.90;;;;;;7389472;19;20149;-78
2022/08/26 03:36:32;;;;;;;3.90;3.50;;;22.40;99.90;;;;;;7390949;19;20154;-79
2022/08/26 03:38:58;;;;;;;5.65;3.90;;;22.60;99.90;;;;;;7395937;19;20130;-77
2022/08/26 03:41:23;;;;;;;4.78;3.20;;;22.80;99.90;;;;;;7390665;19;20142;-77
2022/08/26 03:43:49;;;;;;;4.15;3.33;;;22.80;99.90;;;;;;7394290;19;20147;-78
2022/08/26 03:46:16;;;;;;;3.95;3.55;;;22.80;99.90;;;;;;7397661;19;20135;-79
2022/08/26 03:48:42;;;;;;;5.00;3.33;;;22.90;99.90;;;;;;7399120;19;20494;-79
2022/08/26 03:51:14;;;;;;;3.60;3.20;;;23.10;99.90;;;;;;7395355;19;20159;-79
2022/08/26 03:53:40;;;;;;;4.45;3.78;;;23.10;99.90;;;;;;7395205;19;20135;-78
2022/08/26 03:56:06;;;;;;;4.70;3.92;;;22.90;99.90;;;;;;7393752;19;20146;-79
2022/08/26 03:58:32;;;;;;;5.85;3.42;;;22.70;99.90;;;;;;7397454;19;20131;-79
2022/08/26 04:00:58;;;;;;;5.07;3.50;;;22.90;99.90;;;;;;7396171;19;20119;-79
2022/08/26 04:06:10;;;;;;;3.80;3.33;;;22.90;99.90;;;;;;7395088;19;20130;-79
2022/08/26 04:08:36;;;;;;;4.18;3.38;;;22.80;99.90;;;;;;7392920;19;20131;-79
2022/08/26 04:11:03;;;;;;;5.47;3.45;;;22.60;99.90;;;;;;7393049;19;20762;-78
2022/08/26 04:13:29;;;;;;;3.97;3.42;;;22.30;99.90;;;;;;7393786;19;20135;-78
2022/08/26 04:15:54;;;;;;;4.07;3.38;;;22.10;99.90;;;;;;7394224;19;20151;-79
2022/08/26 04:18:20;;;;;;;7.07;3.42;;;22.20;99.90;;;;;;7389030;19;20138;-78
2022/08/26 04:20:47;;;;;;;3.72;3.40;;;22.30;99.90;;;;;;7398222;19;20456;-78
2022/08/26 04:23:13;;;;;;;6.40;3.95;;;22.30;99.90;;;;;;7394351;19;20163;-79
2022/08/26 04:25:39;;;;;;;3.80;3.35;;;22.20;99.90;;;;;;7390430;19;20146;-78
2022/08/26 04:28:05;;;;;;;4.45;3.22;;;22.30;99.90;;;;;;7391151;19;20147;-79
2022/08/26 04:30:31;;;;;;;4.40;3.92;;;22.50;99.90;;;;;;7393608;19;20437;-80
2022/08/26 04:32:58;;;;;;;3.97;3.28;;;22.60;99.90;;;;;;7392853;19;20138;-79
2022/08/26 04:35:24;;;;;;;6.35;4.00;;;22.40;99.90;;;;;;7392956;19;20612;-79
2022/08/26 04:37:50;;;;;;;6.47;4.20;;;22.40;99.90;;;;;;7392815;19;20118;-79
2022/08/26 04:40:16;;;;;;;5.72;4.18;;;22.60;99.90;;;;;;7391001;19;20151;-80
2022/08/26 04:42:42;;;;;;;5.80;3.97;;;22.60;99.90;;;;;;7391569;19;20131;-79
2022/08/26 04:45:10;;;;;;;6.43;4.03;;;22.50;99.90;;;;;;7394780;19;20126;-79
2022/08/26 04:47:36;;;;;;;5.35;4.00;;;22.40;99.90;;;;;;7387402;19;20135;-79
2022/08/26 04:50:02;;;;;;;5.15;3.80;;;22.30;99.90;;;;;;7395502;19;20163;-79
2022/08/26 04:52:28;;;;;;;6.63;4.35;;;22.40;99.90;;;;;;7392324;19;20198;-80
2022/08/26 04:54:53;;;;;;;7.30;4.78;;;22.40;99.90;;;;;;7395249;19;20194;-79
2022/08/26 04:57:22;;;;;;;8.63;4.63;;;22.40;99.90;;;;;;7388735;19;20919;-79
2022/08/26 04:59:47;;;;;;;5.75;3.72;;;22.50;99.90;;;;;;7390193;19;20151;-79
2022/08/26 05:02:13;;;;;;;5.97;4.35;;;22.20;99.90;;;;;;7394072;19;20600;-81
2022/08/26 05:04:42;;;;;;;8.00;4.90;;;22.20;99.90;;;;;;7389180;19;20624;-76
2022/08/26 05:07:09;;;;;;;5.60;3.95;;;22.40;99.90;;;;;;7391638;19;20214;-74
2022/08/26 05:09:38;;;;;;;4.80;4.10;;;22.40;99.90;;;;;;7393267;19;20206;-75
2022/08/26 05:12:05;;;;;;;5.38;3.80;;;22.30;99.90;;;;;;7393343;19;20123;-74
2022/08/26 05:14:31;;;;;;;9.07;4.20;;;22.40;99.90;;;;;;7392777;19;20138;-75
2022/08/26 05:16:56;;;;;;;6.43;4.15;;;22.40;99.90;;;;;;7390374;19;20146;-74
2022/08/26 05:19:22;;;;;;;11.80;5.18;;;22.30;99.90;;;;;;7391516;19;20122;-75
2022/08/26 05:21:49;;;;;;;13.57;5.53;;;22.60;99.90;;;;;;7392119;19;21659;-76
2022/08/26 05:24:16;;;;;;;8.93;4.47;;;22.80;99.90;;;;;;7390627;19;20151;-76
2022/08/26 05:26:43;;;;;;;4.57;3.88;;;22.90;99.90;;;;;;7391429;19;20585;-74
2022/08/26 05:29:08;;;;;;;8.10;4.28;;;23.00;99.90;;;;;;7391088;19;20711;-74
2022/08/26 05:31:34;;;;;;;9.77;4.78;;;23.00;99.90;;;;;;7388523;19;20224;-74
2022/08/26 05:34:02;;;;;;;4.63;4.20;;;23.00;99.90;;;;;;7392527;19;20134;-77
2022/08/26 05:36:29;;;;;;;5.30;4.07;;;23.00;99.90;;;;;;7390245;19;20232;-75
2022/08/26 05:38:56;;;;;;;7.60;4.40;;;22.90;99.90;;;;;;7389356;19;20142;-76
2022/08/26 05:41:35;;;;;;;5.15;4.53;;;22.90;99.90;;;;;;7391227;19;20270;-76
2022/08/26 05:44:03;;;;;;;5.78;4.13;;;22.80;99.90;;;;;;7390724;19;20160;-75
2022/08/26 05:46:28;;;;;;;6.38;4.68;;;22.70;99.90;;;;;;7389189;19;20160;-74
2022/08/26 05:48:55;;;;;;;7.57;4.60;;;22.60;99.90;;;;;;7389289;19;20519;-75
2022/08/26 05:51:21;;;;;;;8.30;4.68;;;22.70;99.90;;;;;;7391922;19;20602;-76
2022/08/26 05:53:47;;;;;;;7.60;5.28;;;22.70;99.90;;;;;;7387778;19;20167;-75
2022/08/26 05:56:14;;;;;;;4.63;3.67;;;22.80;99.90;;;;;;7391293;19;20600;-75
2022/08/26 05:58:41;;;;;;;4.57;4.05;;;22.90;99.90;;;;;;7390848;19;20130;-75
2022/08/26 06:01:11;;;;;;;6.10;4.38;;;22.80;99.90;;;;;;7389891;19;20138;-74
2022/08/26 06:03:38;;;;;;;4.50;3.90;;;22.80;99.90;;;;;;7386614;19;20156;-75
2022/08/26 06:06:07;;;;;;;5.55;4.95;;;22.70;99.90;;;;;;7389662;19;20615;-76
2022/08/26 06:08:33;;;;;;;5.70;4.07;;;22.60;99.90;;;;;;7389988;19;20223;-75
2022/08/26 06:11:01;;;;;;;6.80;3.97;;;22.60;99.90;;;;;;7394514;19;20130;-74
2022/08/26 06:13:28;;;;;;;4.65;4.10;;;22.60;99.90;;;;;;7394017;19;20130;-76
2022/08/26 06:15:55;;;;;;;3.97;3.55;;;22.70;99.90;;;;;;7395896;19;20149;-75
2022/08/26 06:18:26;;;;;;;5.18;3.85;;;22.70;99.90;;;;;;7384714;19;20135;-75
2022/08/26 06:20:53;;;;;;;6.57;4.32;;;22.80;99.90;;;;;;7387625;19;20261;-75
2022/08/26 06:26:04;;;;;;;4.38;3.72;;;22.90;99.90;;;;;;7393948;19;20194;-75
2022/08/26 06:28:32;;;;;;;4.10;3.70;;;22.80;99.90;;;;;;7387622;19;20134;-76
2022/08/26 06:30:58;;;;;;;4.85;3.75;;;22.80;99.90;;;;;;7389328;19;20457;-75
2022/08/26 06:33:25;;;;;;;5.22;3.70;;;22.90;99.90;;;;;;7388635;19;20151;-76
2022/08/26 06:35:52;;;;;;;5.60;4.20;;;22.90;99.90;;;;;;7387595;19;20229;-75
2022/08/26 06:38:19;;;;;;;4.93;3.53;;;22.90;99.90;;;;;;7388909;19;20134;-75
2022/08/26 06:40:48;;;;;;;5.70;4.00;;;23.00;99.90;;;;;;7387430;19;20148;-76
2022/08/26 06:43:19;;;;;;;6.30;4.30;;;23.10;99.90;;;;;;7387068;19;20176;-75
2022/08/26 06:45:46;;;;;;;5.32;4.13;;;23.10;99.90;;;;;;7389108;19;20227;-75
2022/08/26 06:48:13;;;;;;;5.03;3.65;;;23.10;99.90;;;;;;7388266;19;20537;-75
2022/08/26 06:50:39;;;;;;;4.85;3.70;;;23.20;99.90;;;;;;7383697;19;20143;-76
2022/08/26 06:53:07;;;;;;;4.93;4.10;;;23.20;99.90;;;;;;7389409;19;20218;-76
2022/08/26 06:55:39;;;;;;;4.88;4.38;;;23.10;99.90;;;;;;7389205;19;20155;-76
2022/08/26 06:58:05;;;;;;;4.72;3.88;;;23.00;99.90;;;;;;7386135;19;20547;-76
2022/08/26 07:00:32;;;;;;;4.70;4.18;;;23.10;99.90;;;;;;7384262;19;20151;-76
2022/08/26 07:02:59;;;;;;;5.70;4.40;;;23.10;99.90;;;;;;7388306;19;20154;-75
2022/08/26 07:05:25;;;;;;;6.72;4.68;;;23.10;99.90;;;;;;7387897;19;20134;-76
2022/08/26 07:07:51;;;;;;;7.78;4.60;;;23.10;99.90;;;;;;7389323;19;20154;-75
2022/08/26 07:10:17;;;;;;;6.38;4.72;;;23.10;99.90;;;;;;7390908;19;20163;-75
2022/08/26 07:12:45;;;;;;;5.25;4.75;;;23.10;99.90;;;;;;7394388;19;20565;-74
2022/08/26 07:15:12;;;;;;;6.75;4.22;;;23.10;99.90;;;;;;7398663;19;20130;-75
2022/08/26 07:17:38;;;;;;;5.80;4.25;;;23.10;99.90;;;;;;7390001;19;20130;-75
2022/08/26 07:20:07;;;;;;;5.50;4.05;;;23.20;99.90;;;;;;7396884;19;20127;-76
2022/08/26 07:22:33;;;;;;;6.07;4.45;;;23.40;99.90;;;;;;7394026;19;20587;-76
2022/08/26 07:24:58;;;;;;;6.97;4.43;;;23.60;99.90;;;;;;7393492;19;20236;-75
2022/08/26 07:27:24;;;;;;;5.80;4.55;;;23.70;99.90;;;;;;7397470;19;20126;-76
2022/08/26 07:29:55;;;;;;;6.55;4.43;;;23.90;99.90;;;;;;7392302;19;20146;-76
2022/08/26 07:32:21;;;;;;;7.55;5.00;;;24.10;99.90;;;;;;7396993;19;20131;-75
2022/08/26 07:34:47;;;;;;;6.32;4.30;;;24.20;99.90;;;;;;7393744;19;20138;-75
2022/08/26 07:37:14;;;;;;;5.35;4.05;;;24.20;99.90;;;;;;7390996;19;20143;-75
2022/08/26 07:39:41;;;;;;;5.43;4.15;;;24.20;99.90;;;;;;7396372;19;20453;-76
2022/08/26 07:42:08;;;;;;;7.57;4.55;;;24.10;99.90;;;;;;7392920;19;20146;-75
2022/08/26 07:44:35;;;;;;;6.22;4.80;;;24.10;99.90;;;;;;7396367;19;20210;-75
2022/08/26 07:47:01;;;;;;;6.88;4.40;;;24.20;99.90;;;;;;7393027;19;20457;-75
2022/08/26 07:49:27;;;;;;;6.57;4.00;;;24.20;99.90;;;;;;7393059;19;20163;-74
2022/08/26 07:51:53;;;;;;;5.85;4.10;;;24.40;99.90;;;;;;7394907;19;20869;-75
2022/08/26 07:54:20;;;;;;;7.25;4.25;;;24.70;99.90;;;;;;7394905;19;20138;-74
2022/08/26 07:56:47;;;;;;;7.57;4.30;;;25.10;99.90;;;;;;7392497;19;20138;-75
2022/08/26 07:59:14;;;;;;;5.93;4.50;;;25.50;99.90;;;;;;7396869;19;20130;-74
2022/08/26 08:01:40;;;;;;;6.30;4.15;;;25.90;99.90;;;;;;7393151;19;20170;-74
2022/08/26 08:04:06;;;;;;;4.38;3.75;;;26.20;99.90;;;;;;7395121;19;20135;-75
2022/08/26 08:06:32;;;;;;;4.70;4.00;;;26.50;99.90;;;;;;7393311;19;20638;-75
2022/08/26 08:08:59;;;;;;;5.18;3.85;;;26.70;99.90;;;;;;7394690;19;20180;-75
2022/08/26 08:11:27;;;;;;;7.63;3.78;;;26.80;99.90;;;;;;7392948;19;20134;-74
2022/08/26 08:13:54;;;;;;;6.20;3.50;;;27.20;99.90;;;;;;7394127;19;20561;-75
2022/08/26 08:16:20;;;;;;;4.88;3.97;;;27.40;99.90;;;;;;7390344;19;20535;-76
2022/08/26 08:18:46;;;;;;;4.15;3.75;;;27.50;99.90;;;;;;7394548;19;20143;-75
2022/08/26 08:21:11;;;;;;;5.57;3.72;;;27.30;99.90;;;;;;7385070;19;20134;-76
2022/08/26 08:23:38;;;;;;;6.90;3.63;;;27.20;99.90;;;;;;7392109;19;20148;-76
2022/08/26 08:26:07;;;;;;;6.57;3.80;;;27.00;99.90;;;;;;7386715;19;20145;-75
2022/08/26 08:28:35;;;;;;;5.32;3.65;;;26.80;99.90;;;;;;7386072;19;20158;-75
2022/08/26 08:31:02;;;;;;;6.13;4.10;;;26.80;99.90;;;;;;7385216;19;20371;-74
2022/08/26 08:33:30;;;;;;;5.38;3.30;;;26.70;99.90;;;;;;7391549;19;20131;-75
2022/08/26 08:35:57;;;;;;;5.22;3.55;;;26.60;99.90;;;;;;7392732;19;20478;-75
2022/08/26 08:38:23;;;;;;;4.75;3.55;;;26.60;99.90;;;;;;7388390;19;20160;-75
2022/08/26 08:40:50;;;;;;;3.55;3.20;;;26.70;99.90;;;;;;7393325;19;20150;-75
2022/08/26 08:43:41;;;;;;;4.15;3.40;;;26.60;99.90;;;;;;7394879;19;20142;-74
2022/08/26 08:46:13;;;;;;;5.55;4.13;;;26.60;99.90;;;;;;7393945;19;20167;-76
2022/08/26 08:48:51;;;;;;;4.53;3.72;;;26.60;99.90;;;;;;7394323;19;20155;-75
2022/08/26 08:51:28;;;;;;;10.23;4.55;;;26.50;99.90;;;;;;7390887;19;20142;-75
2022/08/26 08:53:55;;;;;;;6.18;3.35;;;26.40;99.90;;;;;;7392210;19;20624;-76
2022/08/26 08:56:59;;;;;;;6.05;4.03;;;26.30;99.90;;;;;;7391552;19;20149;-76
2022/08/26 08:59:30;;;;;;;4.03;3.38;;;26.40;99.90;;;;;;7384119;19;20130;-75
2022/08/26 09:02:21;;;;;;;4.35;3.38;;;26.30;99.90;;;;;;7390566;19;20602;-74
2022/08/26 09:04:50;;;;;;;4.05;3.00;;;26.20;99.90;;;;;;7387425;19;20147;-75
2022/08/26 09:07:21;;;;;;;4.60;3.33;;;26.30;99.90;;;;;;7391490;19;20160;-75
2022/08/26 09:10:00;;;;;;;6.57;3.10;;;26.30;99.90;;;;;;7388953;19;20135;-75
2022/08/26 09:12:30;;;;;;;4.18;3.00;;;26.40;99.90;;;;;;7392516;19;20142;-75
2022/08/26 09:15:06;;;;;;;4.78;3.00;;;26.50;99.90;;;;;;7389799;19;20139;-75
2022/08/26 09:18:00;;;;;;;9.65;3.33;;;26.50;99.90;;;;;;7388387;19;20142;-75
2022/08/26 09:20:58;;;;;;;3.67;3.13;;;26.40;99.90;;;;;;7390052;19;20147;-75
2022/08/26 09:23:25;;;;;;;3.88;3.22;;;26.40;99.90;;;;;;7389515;19;20181;-74
2022/08/26 09:25:58;;;;;;;3.80;3.22;;;26.40;99.90;;;;;;7389772;19;20138;-75
2022/08/26 09:28:26;;;;;;;4.47;3.47;;;26.30;99.90;;;;;;7387925;19;20147;-75
2022/08/26 09:30:58;;;;;;;4.78;3.85;;;26.30;99.90;;;;;;7390789;19;20198;-74
2022/08/26 09:33:28;;;;;;;5.50;3.13;;;26.30;99.90;;;;;;7385437;19;20139;-75
2022/08/26 09:36:21;;;;;;;3.85;3.30;;;26.30;99.90;;;;;;7389103;19;20163;-75
2022/08/26 09:38:51;;;;;;;6.57;3.25;;;26.20;99.90;;;;;;7390257;19;20148;-75
2022/08/26 09:41:26;;;;;;;3.88;3.08;;;26.20;99.90;;;;;;7389766;19;20184;-74
2022/08/26 09:44:13;;;;;;;4.65;3.00;;;26.30;99.90;;;;;;7384641;19;20217;-75
2022/08/26 09:46:51;;;;;;;5.95;3.35;;;26.30;99.90;;;;;;7388545;19;20149;-75
2022/08/26 09:49:25;;;;;;;3.33;3.00;;;26.30;99.90;;;;;;7387251;19;20146;-75
2022/08/26 09:52:10;;;;;;;3.88;3.05;;;26.30;99.90;;;;;;7388420;19;20148;-75
2022/08/26 09:54:37;;;;;;;4.15;3.08;;;26.40;99.90;;;;;;7386731;19;20172;-74
2022/08/26 09:57:16;;;;;;;3.83;3.00;;;26.40;99.90;;;;;;7389328;19;20154;-73
2022/08/26 09:59:43;;;;;;;3.60;2.83;;;26.60;99.90;;;;;;7392272;19;20182;-74
2022/08/26 10:02:32;;;;;;;4.15;3.00;;;26.80;99.90;;;;;;7392249;19;20134;-75
2022/08/26 10:05:05;;;;;;;3.75;3.30;;;27.10;99.90;;;;;;7389804;19;20166;-76
2022/08/26 10:07:52;;;;;;;4.72;3.17;;;27.30;99.90;;;;;;7388703;19;20632;-75
2022/08/26 10:10:39;;;;;;;4.75;3.08;;;27.50;99.90;;;;;;7391925;19;20145;-75
2022/08/26 10:13:12;;;;;;;4.30;3.60;;;27.70;99.90;;;;;;7389385;19;20126;-75
2022/08/26 10:15:55;;;;;;;4.28;3.60;;;27.80;99.90;;;;;;7389570;19;20153;-75
2022/08/26 10:18:32;;;;;;;6.35;3.67;;;28.00;99.90;;;;;;7388625;19;20138;-74
2022/08/26 10:21:10;;;;;;;9.20;4.20;;;28.10;99.90;;;;;;7391042;19;20519;-74
2022/08/26 10:23:41;;;;;;;7.03;4.05;;;28.20;99.90;;;;;;7389300;19;20157;-75
2022/08/26 10:26:36;;;;;;;6.85;3.97;;;28.30;99.90;;;;;;7390493;19;20150;-76
2022/08/26 10:29:15;;;;;;;9.80;4.07;;;28.30;99.90;;;;;;7387314;19;20613;-74
2022/08/26 10:31:57;;;;;;;8.75;4.07;;;28.20;99.90;;;;;;7389605;19;20150;-75
2022/08/26 10:34:23;;;;;;;7.95;4.25;;;28.20;99.90;;;;;;7389969;19;20161;-75
2022/08/26 10:37:07;;;;;;;6.57;4.00;;;28.30;99.90;;;;;;7387141;19;20142;-75
2022/08/26 10:39:54;;;;;;;6.97;3.85;;;28.20;99.90;;;;;;7384076;19;20142;-76
2022/08/26 10:42:31;;;;;;;9.35;4.25;;;28.30;99.90;;;;;;7385072;19;20783;-75
2022/08/26 10:45:09;;;;;;;7.45;4.20;;;28.40;99.90;;;;;;7393371;19;20142;-76
2022/08/26 10:47:58;;;;;;;10.20;4.43;;;28.40;99.90;;;;;;7393703;19;20150;-75
2022/08/26 10:50:31;;;;;;;11.25;4.53;;;28.60;99.90;;;;;;7398248;19;20142;-75
2022/08/26 10:53:04;;;;;;;7.22;4.40;;;28.70;99.90;;;;;;7394066;19;20596;-74
2022/08/26 10:55:49;;;;;;;8.27;4.10;;;28.80;99.90;;;;;;7398823;19;20480;-75
2022/08/26 10:58:44;;;;;;;5.47;4.10;;;28.80;99.90;;;;;;7393077;19;20647;-75
2022/08/26 11:01:42;;;;;;;10.10;3.92;;;28.80;99.90;;;;;;7395639;19;20251;-73
2022/08/26 11:04:46;;;;;;;6.32;3.70;;;28.90;99.90;;;;;;7397651;19;20162;-75
2022/08/26 11:07:39;;;;;;;7.47;3.85;;;29.10;99.80;;;;;;7391971;19;20167;-75
2022/08/26 11:10:19;;;;;;;6.78;3.75;;;29.30;99.30;;;;;;7394136;19;20217;-74
2022/08/26 11:12:47;;;;;;;4.18;3.58;;;29.40;98.70;;;;;;7396390;19;20201;-74
2022/08/26 11:15:19;;;;;;;8.18;4.28;;;29.50;98.40;;;;;;7398227;19;20147;-75
2022/08/26 11:17:45;;;;;;;6.82;4.03;;;29.50;98.70;;;;;;7393954;19;20139;-75
2022/08/26 11:20:32;;;;;;;9.60;4.10;;;29.60;98.60;;;;;;7395367;19;20471;-76
2022/08/26 11:23:25;;;;;;;7.63;3.88;;;29.70;98.40;;;;;;7394790;19;20152;-76
2022/08/26 11:26:00;;;;;;;6.40;4.00;;;29.80;98.00;;;;;;7393711;19;20151;-75
2022/08/26 11:28:43;;;;;;;10.10;4.78;;;30.00;97.50;;;;;;7394291;19;20149;-77
2022/08/26 11:31:29;;;;;;;10.52;5.28;;;30.00;97.80;;;;;;7395398;19;20154;-75
2022/08/26 11:34:06;;;;;;;5.00;3.88;;;29.90;98.20;;;;;;7393342;19;20157;-76
2022/08/26 11:36:47;;;;;;;7.88;4.28;;;29.70;98.80;;;;;;7398161;19;20194;-76
2022/08/26 11:39:45;;;;;;;5.38;3.92;;;29.50;99.60;;;;;;7396100;19;20149;-75
2022/08/26 11:42:31;;;;;;;5.80;3.95;;;29.40;99.40;;;;;;7392351;19;20165;-74
2022/08/26 11:44:57;;;;;;;9.55;3.90;;;29.40;99.30;;;;;;7398188;19;20138;-75
2022/08/26 11:47:29;;;;;;;9.43;4.63;;;29.30;99.40;;;;;;7395572;19;20142;-75
2022/08/26 11:50:27;;;;;;;10.77;4.60;;;29.30;99.40;;;;;;7399724;19;20638;-75
2022/08/26 11:53:00;;;;;;;12.48;4.55;;;29.30;99.30;;;;;;7389542;19;20361;-75
2022/08/26 11:55:28;;;;;;;5.53;4.18;;;29.30;99.40;;;;;;7396861;19;20139;-75
2022/08/26 11:57:56;;;;;;;11.13;4.80;;;29.30;99.10;;;;;;7395144;19;20473;-76
2022/08/26 12:00:34;;;;;;;12.18;4.90;;;29.40;98.70;;;;;;7392382;19;20231;-74
2022/08/26 12:03:06;;;;;;;10.05;4.28;;;29.40;98.70;;;;;;7397199;19;20134;-75
2022/08/26 12:05:41;;;;;;;10.60;4.60;;;29.60;98.70;;;;;;7392622;19;20157;-75
2022/08/26 12:08:10;;;;;;;8.73;4.47;;;29.80;98.40;;;;;;7392591;19;20134;-74
2022/08/26 12:10:36;;;;;;;7.25;4.45;;;29.90;98.00;;;;;;7393063;19;20154;-74
2022/08/26 12:13:05;;;;;;;7.38;4.30;;;29.90;97.90;;;;;;7394143;19;20187;-75
2022/08/26 12:15:32;;;;;;;6.47;4.35;;;30.00;98.10;;;;;;7392010;19;20145;-75
2022/08/26 12:18:24;;;;;;;9.88;4.60;;;30.10;97.60;;;;;;7391011;19;20146;-75
2022/08/26 12:20:55;;;;;;;9.88;3.97;;;30.30;97.50;;;;;;7393251;19;20214;-75
2022/08/26 12:23:25;;;;;;;8.85;5.18;;;30.30;97.60;;;;;;7392087;19;20138;-75
2022/08/26 12:26:01;;;;;;;8.18;3.88;;;30.30;97.30;;;;;;7392850;19;20246;-76
2022/08/26 12:28:27;;;;;;;8.80;4.03;;;30.40;96.90;;;;;;7390517;19;20153;-75
2022/08/26 12:31:04;;;;;;;10.10;3.97;;;30.50;96.70;;;;;;7395772;19;20581;-76
2022/08/26 12:33:32;;;;;;;7.20;4.35;;;30.50;97.00;;;;;;7391568;19;20134;-74
2022/08/26 12:36:00;;;;;;;7.10;4.70;;;30.40;96.80;;;;;;7393486;19;20139;-74
2022/08/26 12:38:27;;;;;;;9.07;4.28;;;30.40;97.50;;;;;;7395131;19;20134;-75
2022/08/26 12:40:54;;;;;;;5.63;3.95;;;30.60;97.50;;;;;;7390795;19;20154;-75
2022/08/26 12:43:55;;;;;;;9.20;4.57;;;30.40;97.60;;;;;;7387759;19;20146;-75
2022/08/26 12:46:27;;;;;;;7.15;4.18;;;30.40;97.20;;;;;;7387846;19;20158;-75
2022/08/26 12:48:53;;;;;;;6.82;4.13;;;30.20;97.10;;;;;;7389679;19;20158;-76
2022/08/26 12:51:33;;;;;;;9.68;4.70;;;30.10;97.30;;;;;;7391223;19;20182;-73
2022/08/26 12:54:05;;;;;;;7.85;4.38;;;30.00;97.40;;;;;;7391826;19;20154;-74
2022/08/26 12:56:39;;;;;;;7.03;4.45;;;30.00;97.30;;;;;;7389653;19;20494;-74
2022/08/26 12:59:24;;;;;;;9.68;4.60;;;29.90;97.50;;;;;;7393954;19;20160;-75
2022/08/26 13:01:52;;;;;;;7.82;4.53;;;30.10;97.30;;;;;;7391800;19;20148;-74
2022/08/26 13:04:34;;;;;;;8.52;4.05;;;30.10;97.30;;;;;;7389883;19;20596;-75
2022/08/26 13:07:20;;;;;;;7.70;4.47;;;30.20;97.10;;;;;;7388992;19;20134;-75
2022/08/26 13:09:46;;;;;;;6.97;4.18;;;30.40;96.80;;;;;;7387184;19;20139;-76
2022/08/26 13:12:23;;;;;;;9.43;4.03;;;30.30;97.00;;;;;;7385709;19;20185;-77